Garden City, KS

8:05 AM CDT on August 01, 2015 (GMT -0500)
N0KQX | | Change Station
CLOSE
Current Station
Personal Weather Station
Location: Garden City, KS
Elevation: 2839 ft
Nearby Weather Stations

Elev 2839 ft 37.97 °N, 100.85 °W | Updated 0 second ago

Fog
Fog
72.2 °F
Feels Like 72.2 °F
N
0.0
Wind Variable Wind from South
Gusts 0.0 mph

Today
High -- | Low -- °F
--% Chance of Precip.
Yesterday
High -- | Low -- °F
Precip. -- in
6:46 AM 8:52 PM
Full, 98% visible
Pressure 30.12 in
Visibility 0.2 miles
Clouds
Dew Point 69 °F
Humidity 91%
Rainfall 0.00 in
Snow Depth Not available.
UV Not available.
Pollen 6.40 out of 12
Air Quality Not available.
Flu Activity Not available.
SPECI KGCK 011259Z 13003KT 1/4SM FG VV001 19/19 A3012 RMK AO2 T01940189

More Conditions Fewer Conditions

Pressure 30.12 in
Visibility 0.2 miles
Clouds
Dew Point 69 °F
Humidity 91%
Rainfall 0.00 in
Snow Depth Not available.
UV Not available.
Pollen 6.40 out of 12
Air Quality Not available.
Flu Activity Not available.
SPECI KGCK 011259Z 13003KT 1/4SM FG VV001 19/19 A3012 RMK AO2 T01940189

More Conditions Fewer Conditions

10-Day Weather Forecast

×

Almanac

Astronomy

Aug. 01, 2015 Rise Set
Actual Time
Civil Twilight
Nautical Twilight
Astronomical Twilight
Moon
Length of Visible Light
Length of Day
Tomorrow will be .
, % of the Moon is Illuminated

Today's Extremes

State Highs State Lows

Community

WunderPhotos

Upload Photos

1,842,935 photos uploaded!

WunderBlogs® & News

Nearby

Air Quality

  Air Quality AQ Index Pollutant
Not available.

Snow Depth

Station Depth Elevation

Earthquake Activity

City Distance Mag. Time & Date
Minimum magnitude displayed is 2.5.

Coastal Water Temperatures

Place Temperature

Stations

Nearby Weather Stations

Station Location Temp. Windchill Dew Point Humidity Wind Precip. Elev Updated Type